Flight Track Log - Related Links

Times and Time Zones

All times are in EDT time to prevent confusion due to time zone crossing. See the HXA2669 flight status page for this flight to view local times or setup timezone preferences in your user account.

Time Position Orientation Groundspeed Altitude Reporting Facility
EDT Latitude Longitude Course Direction KTS MPH feet Rate Location/Type
Wed 07:15:00 PM 39.2653 121.3098 329° Northwest  Level Estimated
Wed 07:16:00 PM 39.3087 121.2765 329° Northwest  Level Estimated
Wed 07:17:00 PM 39.3520 121.2432 329° Northwest  Level Estimated
Wed 07:18:00 PM 39.3953 121.2098 329° Northwest  Level Estimated
Wed 07:19:00 PM 39.4386 121.1764 329° Northwest  Level Estimated
Wed 07:20:00 PM 39.4819 121.1430 329° Northwest  Level Estimated
Wed 07:21:00 PM 39.5252 121.1095 329° Northwest  Level Estimated
Wed 07:22:00 PM 39.5685 121.0760 329° Northwest  Level Estimated
Wed 07:23:00 PM 39.6118 121.0424 329° Northwest  Level Estimated
Wed 07:24:00 PM 39.6550 121.0088 329° Northwest  Level Estimated
Wed 07:25:00 PM 39.6982 120.9752 329° Northwest  Level Estimated
Wed 07:26:00 PM 39.7415 120.9415 329° Northwest  Level Estimated
Wed 07:27:00 PM 39.7847 120.9077 329° Northwest  Level Estimated
Wed 07:28:00 PM 39.8279 120.8739 329° Northwest  Level Estimated
Wed 07:29:00 PM 39.8712 120.8401 329° Northwest  Level Estimated
Wed 07:30:00 PM 39.9143 120.8063 329° Northwest  Level Estimated
Wed 07:31:00 PM 39.9575 120.7723 329° Northwest  Level Estimated
Wed 07:32:00 PM 40.0007 120.7384 329° Northwest  Level Estimated
Wed 07:33:00 PM 40.0439 120.7044 329° Northwest  Level Estimated
Wed 07:34:00 PM 40.0871 120.6704 329° Northwest  Level Estimated
Wed 07:35:00 PM 40.1302 120.6363 329° Northwest  Level Estimated
Wed 07:36:00 PM 40.1733 120.6022 329° Northwest  Level Estimated
Wed 07:37:00 PM 40.2165 120.5680 329° Northwest  Level Estimated
Wed 07:38:00 PM 40.2596 120.5338 329° Northwest  Level Estimated
Wed 07:39:00 PM 40.3027 120.4995 329° Northwest  Level Estimated
Wed 07:40:00 PM 40.3458 120.4652 329° Northwest  Level Estimated
Wed 07:41:00 PM 40.3889 120.4309 329° Northwest  Level Estimated
Wed 07:42:00 PM 40.4320 120.3965 329° Northwest  Level Estimated
Wed 07:43:00 PM 40.4750 120.3621 329° Northwest  Level Estimated
Wed 07:44:00 PM 40.5181 120.3276 329° Northwest  Level Estimated
Wed 07:45:00 PM 40.5611 120.2931 329° Northwest  Level Estimated
Wed 07:46:00 PM 40.6042 120.2585 329° Northwest  Level Estimated
Wed 07:47:00 PM 40.6472 120.2239 329° Northwest  Level Estimated
Wed 07:48:00 PM 40.6902 120.1893 329° Northwest  Level Estimated
Wed 07:49:00 PM 40.7332 120.1546 329° Northwest  Level Estimated
Wed 07:50:00 PM 40.7762 120.1198 329° Northwest  Level Estimated
Wed 07:51:00 PM 40.8192 120.0851 329° Northwest  Level Estimated
Wed 07:52:00 PM 40.8622 120.0502 328° Northwest  Level Estimated
Wed 07:53:00 PM 40.9052 120.0153 328° Northwest  Level Estimated
Wed 07:54:00 PM 40.9481 119.9804 328° Northwest  Level Estimated
Wed 07:55:00 PM 40.9911 119.9455 328° Northwest  Level Estimated
Wed 07:56:00 PM 41.0340 119.9104 328° Northwest  Level Estimated
Wed 07:57:00 PM 41.0769 119.8754 328° Northwest  Level Estimated
Wed 07:58:00 PM 41.1198 119.8403 328° Northwest  Level Estimated
Wed 07:59:00 PM 41.1628 119.8051 328° Northwest  Level Estimated
Wed 08:00:00 PM 41.2056 119.7699 328° Northwest  Level Estimated
Wed 08:01:00 PM 41.2485 119.7347 328° Northwest  Level Estimated
Wed 08:02:00 PM 41.2914 119.6994 328° Northwest  Level Estimated
Wed 08:03:00 PM 41.3343 119.6641 328° Northwest  Level Estimated
Wed 08:04:00 PM 41.3771 119.6287 328° Northwest  Level Estimated
Wed 08:05:00 PM 41.4199 119.5933 328° Northwest  Level Estimated
Wed 08:06:00 PM 41.4628 119.5578 328° Northwest  Level Estimated
Wed 08:07:00 PM 41.5056 119.5223 328° Northwest  Level Estimated
Wed 08:08:00 PM 41.5484 119.4867 328° Northwest  Level Estimated
Wed 08:09:00 PM 41.5912 119.4511 328° Northwest  Level Estimated
Wed 08:10:00 PM 41.6340 119.4154 328° Northwest  Level Estimated
Wed 08:11:00 PM 41.6767 119.3797 328° Northwest  Level Estimated
Wed 08:12:00 PM 41.7195 119.3439 328° Northwest  Level Estimated
Wed 08:13:00 PM 41.7622 119.3081 328° Northwest  Level Estimated
Wed 08:14:00 PM 41.8050 119.2723 328° Northwest  Level Estimated
Wed 08:15:00 PM 41.8477 119.2364 328° Northwest  Level Estimated
Wed 08:16:00 PM 41.8904 119.2004 328° Northwest  Level Estimated
Wed 08:17:00 PM 41.9331 119.1644 328° Northwest  Level Estimated
Wed 08:18:00 PM 41.9758 119.1284 328° Northwest  Level Estimated
Wed 08:19:00 PM 42.0185 119.0923 328° Northwest  Level Estimated
Wed 08:20:00 PM 42.0612 119.0562 328° Northwest  Level Estimated
Wed 08:21:00 PM 42.1038 119.0200 328° Northwest  Level Estimated
Wed 08:22:00 PM 42.1465 118.9837 328° Northwest  Level Estimated
Wed 08:23:00 PM 42.1891 118.9474 328° Northwest  Level Estimated
Wed 08:24:00 PM 42.2318 118.9111 328° Northwest  Level Estimated
Wed 08:25:00 PM 42.2350 118.9083 328° Northwest  Level Estimated
Wed 08:26:00 PM 42.2350 118.9083 North  Level Estimated
Wed 08:27:00 PM 42.2350 118.9083 North  Level Estimated
Wed 08:28:00 PM 42.2350 118.9083 North  Level Estimated
Wed 08:29:00 PM 42.2350 118.9083 North  Level Estimated
Wed 08:30:00 PM 42.2350 118.9083 North  Level Estimated
Wed 08:31:00 PM 42.2350 118.9083 North  Level Estimated
Wed 08:32:00 PM 42.2350 118.9083 North  Level Estimated
Wed 08:33:00 PM 42.2350 118.9083 North  Level Estimated
Wed 08:34:00 PM 42.2350 118.9083 North  Level Estimated
Wed 08:35:00 PM 42.2350 118.9083 North  Level Estimated
Wed 08:36:00 PM 42.2350 118.9083 North  Level Estimated
Wed 08:37:00 PM 42.2350 118.9083 North  Level Estimated
Wed 08:38:00 PM 42.2350 118.9083 North  Level Estimated
Wed 08:39:00 PM 42.2350 118.9083 North  Level Estimated
Wed 08:40:00 PM 42.2350 118.9083 North  Level Estimated
Wed 08:41:00 PM 42.2350 118.9083 North  Level Estimated

Login

Don't have an account? Register now (free) for customized features, flight alerts, and more!